Alpena, MI

7:12 AM EST on December 20, 2014 (GMT -0500)
Alpena County Regional | Change Station
CLOSE
Current Station
Airport
Location: Alpena,
Elevation: 689 ft
Nearby Weather Stations

Elev 689 ft 45.07 °N, 83.56 °W | Updated 18 minutes ago

Clear
Clear
9 °F
Feels Like 9 °F
N
0
Wind Variable Wind from North

Today
High -- | Low -- °F
--% Chance of Precip.
Yesterday
High -- | Low -- °F
Precip. -- in
8:08 AM 4:54 PM
Waning Crescent, 3% visible
Pressure 30.35 in
Visibility 10.0 miles
Clouds Clear
Dew Point 5 °F
Humidity 84%
Rainfall 0.00 in
Snow Depth Not available.
UV 0 out of 12
Pollen .10 out of 12
Air Quality Not available.
Flu Activity Not available.
METAR KAPN 201154Z AUTO 00000KT 10SM CLR M13/M15 A3031 RMK AO2 SLP278 I6000 T11281150 11111 21133 53004

More Conditions Fewer Conditions

Pressure 30.35 in
Visibility 10.0 miles
Clouds Clear
Dew Point 5 °F
Humidity 84%
Rainfall 0.00 in
Snow Depth Not available.
UV 0 out of 12
Pollen .10 out of 12
Air Quality Not available.
Flu Activity Not available.
METAR KAPN 201154Z AUTO 00000KT 10SM CLR M13/M15 A3031 RMK AO2 SLP278 I6000 T11281150 11111 21133 53004

More Conditions Fewer Conditions

Nowcast | as of 7:00 am EST on December 20, 2014

At 8 am...mostly clear. Temperature 8 above. Light winds. At 10 am...mostly clear. Temperature 18. Light winds. At 12 PM...mostly clear. Temperature 25. Light winds. At 2 PM...mostly clear. Temperature 30. Light winds.

×

10-Day Weather Forecast

Almanac

Astronomy

Dec. 20, 2014 Rise Set
Actual Time
Civil Twilight
Nautical Twilight
Astronomical Twilight
Moon
Length of Visible Light
Length of Day
Tomorrow will be .
, % of the Moon is Illuminated

Today's Extremes

State Highs State Lows

Community

WunderPhotos

Upload Photos

1,779,162 photos uploaded!

WunderBlogs® & News

Nearby

Air Quality

  Air Quality AQ Index Pollutant
Not available.

Snow Depth

Station Depth Elevation

Earthquake Activity

City Distance Mag. Time & Date
Minimum magnitude displayed is 2.5.

Coastal Water Temperatures

Place Temperature

Nearby Weather Stations